createdAt,value
2022-10-12T00:00:53.946Z,101337.91
2022-10-12T00:03:34.389Z,101346.02
2022-10-12T00:06:13.080Z,101337.67
2022-10-12T00:08:42.218Z,101345.61
2022-10-12T00:11:14.051Z,101345.56
2022-10-12T00:13:41.771Z,101347.89
2022-10-12T00:16:12.317Z,101344.54
2022-10-12T00:18:40.453Z,101350.75
2022-10-12T00:21:16.276Z,101354.34
2022-10-12T00:23:44.565Z,101353.81
2022-10-12T00:26:13.790Z,101352.52
2022-10-12T00:28:41.618Z,101355.18
2022-10-12T00:31:15.185Z,101354.93
2022-10-12T00:33:44.001Z,101354.40
2022-10-12T00:36:23.433Z,101355.41
2022-10-12T00:38:53.089Z,101348.38
2022-10-12T00:41:23.671Z,101354.27
2022-10-12T00:43:57.858Z,101355.75
2022-10-12T00:46:30.092Z,101355.39
2022-10-12T00:49:09.461Z,101355.24
2022-10-12T00:51:39.310Z,101348.19
2022-10-12T00:54:12.285Z,101356.04
2022-10-12T00:56:44.245Z,101361.80
2022-10-12T00:59:19.246Z,101361.51
2022-10-12T01:01:46.928Z,101359.49
2022-10-12T01:04:14.780Z,101363.61
2022-10-12T01:06:42.470Z,101360.84
2022-10-12T01:09:10.083Z,101358.38
2022-10-12T01:11:37.850Z,101361.50
2022-10-12T01:14:05.691Z,101365.10
2022-10-12T01:16:36.294Z,101367.64
2022-10-12T01:19:13.043Z,101365.84
2022-10-12T01:21:50.422Z,101368.18
2022-10-12T01:24:30.103Z,101365.05
2022-10-12T01:27:12.231Z,101363.14
2022-10-12T01:30:09.242Z,101370.33
2022-10-12T01:33:04.631Z,101374.19
2022-10-12T01:35:45.897Z,101372.79
2022-10-12T01:38:35.233Z,101372.32
2022-10-12T01:41:18.874Z,101369.77
2022-10-12T01:43:47.211Z,101376.27
2022-10-12T01:46:20.977Z,101388.47
2022-10-12T01:48:51.986Z,101386.42
2022-10-12T01:51:31.496Z,101390.13
2022-10-12T01:54:24.731Z,101392.50
2022-10-12T01:57:08.003Z,101392.68
2022-10-12T01:59:41.546Z,101387.09
2022-10-12T02:02:42.045Z,101394.59
2022-10-12T02:05:14.856Z,101393.08
2022-10-12T02:07:48.403Z,101394.23
2022-10-12T02:10:28.361Z,101391.46
2022-10-12T02:12:59.177Z,101392.46
2022-10-12T02:15:28.082Z,101391.57
2022-10-12T02:17:57.985Z,101390.95
2022-10-12T02:20:27.666Z,101394.09
2022-10-12T02:22:55.627Z,101396.45
2022-10-12T02:25:26.943Z,101398.45
2022-10-12T02:28:00.602Z,101398.72
2022-10-12T02:30:28.292Z,101400.89
2022-10-12T02:33:06.365Z,101397.60
2022-10-12T02:36:03.604Z,101391.99
2022-10-12T02:38:58.088Z,101391.28
2022-10-12T02:41:33.328Z,101395.48
2022-10-12T02:44:05.121Z,101399.13
2022-10-12T02:46:35.376Z,101398.91
2022-10-12T02:49:04.516Z,101397.71
2022-10-12T02:51:33.092Z,101404.44
2022-10-12T02:54:01.917Z,101404.11
2022-10-12T02:56:29.694Z,101407.65
2022-10-12T02:58:57.623Z,101407.20
2022-10-12T03:01:25.367Z,101408.38
2022-10-12T03:03:53.039Z,101403.11
2022-10-12T03:06:20.716Z,101408.02
2022-10-12T03:08:48.422Z,101405.66
2022-10-12T03:11:16.048Z,101397.66
2022-10-12T03:13:43.691Z,101400.10
2022-10-12T03:16:12.098Z,101400.35
2022-10-12T03:18:40.289Z,101401.88
2022-10-12T03:21:08.035Z,101399.48
2022-10-12T03:23:35.626Z,101399.31
2022-10-12T03:26:04.196Z,101402.89
2022-10-12T03:28:32.831Z,101395.63
2022-10-12T03:31:01.058Z,101405.16
2022-10-12T03:33:29.410Z,101404.15
2022-10-12T03:35:57.266Z,101402.39
2022-10-12T03:38:24.936Z,101393.98
2022-10-12T03:40:52.604Z,101402.93
2022-10-12T03:43:20.386Z,101401.33
2022-10-12T03:45:48.046Z,101396.34
2022-10-12T03:48:15.794Z,101398.45
2022-10-12T03:50:48.489Z,101402.91
2022-10-12T03:53:16.611Z,101402.69
2022-10-12T03:55:44.455Z,101399.90
2022-10-12T03:58:13.248Z,101407.05
2022-10-12T04:00:41.873Z,101406.83
2022-10-12T04:03:09.539Z,101410.09
2022-10-12T04:05:37.211Z,101411.19
2022-10-12T04:08:05.060Z,101410.12
2022-10-12T04:10:32.693Z,101412.32
2022-10-12T04:13:00.306Z,101413.63
2022-10-12T04:15:27.944Z,101408.09
2022-10-12T04:17:55.609Z,101414.04
2022-10-12T04:20:23.269Z,101412.89
2022-10-12T04:22:50.890Z,101413.05
2022-10-12T04:25:18.569Z,101408.63
2022-10-12T04:27:46.208Z,101415.64
2022-10-12T04:30:14.163Z,101415.30
2022-10-12T04:32:42.046Z,101415.58
2022-10-12T04:35:09.730Z,101416.14
2022-10-12T04:37:37.761Z,101419.13
2022-10-12T04:40:06.341Z,101421.64
2022-10-12T04:42:34.000Z,101426.74
2022-10-12T04:45:01.792Z,101422.39
2022-10-12T04:47:29.535Z,101422.13
2022-10-12T04:49:57.111Z,101424.13
2022-10-12T04:52:24.773Z,101421.98
2022-10-12T04:54:52.432Z,101414.80
2022-10-12T04:57:20.294Z,101421.25
2022-10-12T04:59:47.921Z,101420.42
2022-10-12T05:02:15.957Z,101420.44
2022-10-12T05:04:43.758Z,101423.42
2022-10-12T05:07:11.466Z,101427.30
2022-10-12T05:09:39.368Z,101423.65
2022-10-12T05:12:07.236Z,101432.89
2022-10-12T05:14:36.204Z,101439.52
2022-10-12T05:20:26.713Z,101440.65
2022-10-12T05:22:54.362Z,101437.62
2022-10-12T05:25:22.174Z,101452.33
2022-10-12T05:27:49.857Z,101451.21
2022-10-12T05:30:17.680Z,101451.98
2022-10-12T05:32:45.316Z,101454.79
2022-10-12T05:35:13.020Z,101449.85
2022-10-12T05:37:41.110Z,101465.02
2022-10-12T05:40:09.278Z,101459.55
2022-10-12T05:42:37.218Z,101461.56
2022-10-12T05:45:06.059Z,101463.68
2022-10-12T05:47:33.868Z,101458.64
2022-10-12T05:50:01.840Z,101465.92
2022-10-12T05:52:29.681Z,101473.48
2022-10-12T05:54:57.311Z,101474.27
2022-10-12T05:57:24.989Z,101472.76
2022-10-12T05:59:52.623Z,101472.56
2022-10-12T06:02:21.623Z,101472.67
2022-10-12T06:04:49.381Z,101466.07
2022-10-12T06:07:17.120Z,101472.61
2022-10-12T06:09:44.823Z,101476.52
2022-10-12T06:12:12.777Z,101475.61
2022-10-12T06:14:40.415Z,101476.36
2022-10-12T06:17:09.584Z,101480.29
2022-10-12T06:19:37.341Z,101478.83
2022-10-12T06:22:05.127Z,101475.59
2022-10-12T06:24:32.847Z,101478.02
2022-10-12T06:27:01.168Z,101474.06
2022-10-12T06:29:28.780Z,101475.16
2022-10-12T06:31:56.525Z,101477.34
2022-10-12T06:34:24.228Z,101479.26
2022-10-12T06:36:52.314Z,101478.81
2022-10-12T06:39:20.037Z,101477.81
2022-10-12T06:41:47.777Z,101484.88
2022-10-12T06:44:15.603Z,101487.27
2022-10-12T06:46:43.295Z,101482.61
2022-10-12T06:49:11.057Z,101483.73
2022-10-12T06:51:39.103Z,101486.39
2022-10-12T06:54:06.710Z,101483.41
2022-10-12T06:56:35.055Z,101485.20
2022-10-12T06:59:02.707Z,101481.37
2022-10-12T07:01:30.471Z,101483.45
2022-10-12T07:04:00.653Z,101481.46
2022-10-12T07:06:28.828Z,101487.37
2022-10-12T07:08:56.502Z,101482.33
2022-10-12T07:11:24.271Z,101483.88
2022-10-12T07:13:51.865Z,101478.87
2022-10-12T07:16:19.642Z,101472.83
2022-10-12T07:18:47.311Z,101478.36
2022-10-12T07:21:15.035Z,101474.70
2022-10-12T07:23:46.043Z,101485.18
2022-10-12T07:26:14.326Z,101481.59
2022-10-12T07:28:42.059Z,101476.55
2022-10-12T07:31:10.068Z,101476.60
2022-10-12T07:33:41.188Z,101475.35
2022-10-12T07:36:21.286Z,101474.59
2022-10-12T07:38:50.161Z,101480.16
2022-10-12T07:41:18.520Z,101478.82
2022-10-12T07:43:46.256Z,101471.34
2022-10-12T07:46:14.047Z,101473.81
2022-10-12T07:48:47.273Z,101463.56
2022-10-12T07:51:18.446Z,101471.52
2022-10-12T07:53:46.203Z,101469.91
2022-10-12T07:56:17.209Z,101462.55
2022-10-12T07:58:50.371Z,101458.55
2022-10-12T08:01:19.773Z,101456.52
2022-10-12T08:03:48.275Z,101458.52
2022-10-12T08:06:18.901Z,101454.62
2022-10-12T08:08:46.983Z,101458.29
2022-10-12T08:11:14.691Z,101460.38
2022-10-12T08:13:43.506Z,101449.77
2022-10-12T08:16:14.694Z,101451.63
2022-10-12T08:18:42.646Z,101445.21
2022-10-12T08:21:12.931Z,101446.52
2022-10-12T08:23:41.097Z,101442.95
2022-10-12T08:26:09.893Z,101447.55
2022-10-12T08:28:37.744Z,101437.93
2022-10-12T08:31:07.283Z,101437.52
2022-10-12T08:33:35.272Z,101437.30
2022-10-12T08:36:05.234Z,101434.64
2022-10-12T08:38:33.752Z,101430.42
2022-10-12T08:41:06.990Z,101430.68
2022-10-12T08:43:52.301Z,101432.38
2022-10-12T08:46:22.469Z,101422.84
2022-10-12T08:48:59.988Z,101424.98
2022-10-12T08:51:31.744Z,101428.20
2022-10-12T08:54:07.539Z,101430.27
2022-10-12T08:56:35.864Z,101431.14
2022-10-12T08:59:03.745Z,101429.72
2022-10-12T09:01:51.697Z,101428.47
2022-10-12T09:04:22.594Z,101426.45
2022-10-12T09:07:15.193Z,101428.06
2022-10-12T09:09:51.913Z,101422.70
2022-10-12T09:12:51.959Z,101418.42
2022-10-12T09:15:24.080Z,101415.64
2022-10-12T09:17:56.769Z,101407.81
2022-10-12T09:20:47.066Z,101410.90
2022-10-12T09:23:24.426Z,101401.29
2022-10-12T09:25:59.106Z,101405.42
2022-10-12T09:28:37.644Z,101396.27
2022-10-12T09:31:20.668Z,101393.75
2022-10-12T09:33:54.221Z,101403.98
2022-10-12T09:36:25.236Z,101398.80
2022-10-12T09:38:53.656Z,101393.47
2022-10-12T09:41:29.724Z,101389.80
2022-10-12T09:44:00.535Z,101400.05
2022-10-12T09:46:58.072Z,101400.87
2022-10-12T09:49:47.266Z,101394.68
2022-10-12T09:52:18.020Z,101398.48
2022-10-12T09:54:49.870Z,101395.08
2022-10-12T09:57:28.174Z,101396.11
2022-10-12T09:59:56.147Z,101397.50
2022-10-12T10:02:25.199Z,101402.71
2022-10-12T10:04:54.177Z,101400.64
2022-10-12T10:07:35.202Z,101396.70
2022-10-12T10:10:16.144Z,101393.65
2022-10-12T10:12:48.737Z,101392.80
2022-10-12T10:15:23.596Z,101378.20
2022-10-12T10:17:54.664Z,101389.92
2022-10-12T10:20:36.894Z,101383.20
2022-10-12T10:23:05.376Z,101378.20
2022-10-12T10:25:34.124Z,101373.21
2022-10-12T10:28:22.392Z,101371.20
2022-10-12T10:30:59.955Z,101371.02
2022-10-12T10:33:27.743Z,101366.45
2022-10-12T10:36:05.030Z,101359.22
2022-10-12T10:38:49.520Z,101357.37
2022-10-12T10:41:20.665Z,101355.30
2022-10-12T10:43:49.741Z,101349.17
2022-10-12T10:46:27.989Z,101346.41
2022-10-12T10:49:06.238Z,101348.09
2022-10-12T10:51:53.947Z,101348.98
2022-10-12T10:54:24.308Z,101343.15
2022-10-12T10:56:56.897Z,101340.89
2022-10-12T10:59:36.012Z,101340.20
2022-10-12T11:02:11.300Z,101336.17
2022-10-12T11:04:46.423Z,101337.85
2022-10-12T11:07:56.387Z,101335.70
2022-10-12T11:10:31.240Z,101329.14
2022-10-12T11:13:24.428Z,101330.88
2022-10-12T11:16:03.079Z,101335.67
2022-10-12T11:18:41.551Z,101336.30
2022-10-12T11:21:17.976Z,101331.26
2022-10-12T11:23:51.367Z,101329.92
2022-10-12T11:26:43.777Z,101324.81
2022-10-12T11:29:14.956Z,101315.02
2022-10-12T11:31:50.224Z,101311.59
2022-10-12T11:34:21.875Z,101308.92
2022-10-12T11:37:18.298Z,101308.45
2022-10-12T11:39:47.901Z,101308.12
2022-10-12T11:42:27.582Z,101306.85
2022-10-12T11:44:55.497Z,101307.86
2022-10-12T11:47:38.068Z,101296.40
2022-10-12T11:50:27.150Z,101303.95
2022-10-12T11:52:57.194Z,101304.35
2022-10-12T11:55:30.750Z,101297.84
2022-10-12T11:58:07.632Z,101295.28
2022-10-12T12:01:04.402Z,101302.52
2022-10-12T12:03:44.411Z,101301.56
2022-10-12T12:06:32.441Z,101300.04
2022-10-12T12:09:02.857Z,101298.19
2022-10-12T12:11:33.869Z,101298.80
2022-10-12T12:14:26.428Z,101299.96
2022-10-12T12:17:14.023Z,101298.20
2022-10-12T12:19:43.789Z,101294.89
2022-10-12T12:22:31.836Z,101301.98
2022-10-12T12:25:15.531Z,101306.26
2022-10-12T12:27:45.053Z,101302.02
2022-10-12T12:30:18.556Z,101301.41
2022-10-12T12:32:56.654Z,101305.29
2022-10-12T12:35:33.013Z,101304.96
2022-10-12T12:38:05.083Z,101303.57
2022-10-12T12:40:33.824Z,101298.26
2022-10-12T12:43:29.821Z,101298.64
2022-10-12T12:45:57.906Z,101312.34
2022-10-12T12:48:43.817Z,101314.19
2022-10-12T12:51:20.697Z,101306.80
2022-10-12T12:53:55.729Z,101311.64
2022-10-12T12:56:56.372Z,101308.76
2022-10-12T12:59:50.526Z,101308.44
2022-10-12T13:02:49.297Z,101311.83
2022-10-12T13:05:38.665Z,101317.84
2022-10-12T13:08:18.703Z,101318.87
2022-10-12T13:11:14.526Z,101311.27
2022-10-12T13:14:07.002Z,101320.27
2022-10-12T13:19:42.163Z,101314.98
2022-10-12T13:22:33.525Z,101317.67
2022-10-12T13:25:07.166Z,101313.33
2022-10-12T13:27:45.866Z,101309.16
2022-10-12T13:30:36.341Z,101311.30
2022-10-12T13:33:21.648Z,101307.71
2022-10-12T13:36:13.244Z,101306.08
2022-10-12T13:38:40.882Z,101308.39
2022-10-12T13:41:13.208Z,101312.02
2022-10-12T13:44:02.385Z,101313.17
2022-10-12T13:46:45.217Z,101314.00
2022-10-12T13:49:23.827Z,101315.23
2022-10-12T13:51:57.915Z,101305.71
2022-10-12T13:54:31.692Z,101298.83
2022-10-12T13:57:03.107Z,101309.58
2022-10-12T13:59:36.554Z,101310.45
2022-10-12T14:02:17.212Z,101314.73
2022-10-12T14:04:44.965Z,101312.82
2022-10-12T14:07:22.580Z,101311.96
2022-10-12T14:09:58.758Z,101313.90
2022-10-12T14:12:30.050Z,101312.43
2022-10-12T14:14:58.637Z,101313.84
2022-10-12T14:17:26.362Z,101306.54
2022-10-12T14:19:58.873Z,101306.55
2022-10-12T14:22:30.223Z,101313.39
2022-10-12T14:25:06.978Z,101312.56
2022-10-12T14:27:37.960Z,101316.08
2022-10-12T14:30:33.872Z,101317.35
2022-10-12T14:33:16.968Z,101311.68
2022-10-12T14:35:48.348Z,101310.64
2022-10-12T14:38:45.697Z,101319.94
2022-10-12T14:41:28.526Z,101319.04
2022-10-12T14:44:08.319Z,101317.42
2022-10-12T14:46:40.736Z,101316.86
2022-10-12T14:49:20.346Z,101321.64
2022-10-12T14:51:50.322Z,101314.27
2022-10-12T14:54:18.109Z,101316.88
2022-10-12T14:56:46.184Z,101320.70
2022-10-12T14:59:14.951Z,101319.70
2022-10-12T15:01:50.990Z,101315.10
2022-10-12T15:04:19.277Z,101315.95
2022-10-12T15:06:50.898Z,101313.67
2022-10-12T15:09:19.549Z,101318.88
2022-10-12T15:11:47.346Z,101311.15
2022-10-12T15:14:15.296Z,101312.23
2022-10-12T15:16:46.511Z,101314.11
2022-10-12T15:19:14.399Z,101315.75
2022-10-12T15:21:46.763Z,101315.87
2022-10-12T15:24:15.624Z,101319.02
2022-10-12T15:26:47.026Z,101322.65
2022-10-12T15:29:14.724Z,101316.86
2022-10-12T15:31:47.768Z,101321.34
2022-10-12T15:34:19.102Z,101316.36
2022-10-12T15:36:47.180Z,101321.48
2022-10-12T15:39:14.845Z,101328.09
2022-10-12T15:41:42.708Z,101330.34
2022-10-12T15:44:13.168Z,101328.91
2022-10-12T15:46:41.663Z,101327.98
2022-10-12T15:49:09.519Z,101326.16
2022-10-12T15:51:44.939Z,101322.51
2022-10-12T15:54:12.680Z,101324.08
2022-10-12T15:56:40.918Z,101324.80
2022-10-12T15:59:08.781Z,101321.54
2022-10-12T16:01:37.885Z,101330.48
2022-10-12T16:04:07.515Z,101330.60
2022-10-12T16:06:35.191Z,101329.27
2022-10-12T16:09:02.906Z,101328.84
2022-10-12T16:11:30.627Z,101329.27
2022-10-12T16:13:58.257Z,101329.34
2022-10-12T16:16:26.127Z,101328.77
2022-10-12T16:18:54.348Z,101327.19
2022-10-12T16:21:22.289Z,101323.97
2022-10-12T16:23:49.974Z,101328.83
2022-10-12T16:26:17.674Z,101328.22
2022-10-12T16:28:45.531Z,101326.13
2022-10-12T16:31:17.627Z,101321.38
2022-10-12T16:33:45.719Z,101331.46
2022-10-12T16:36:16.509Z,101326.59
2022-10-12T16:38:44.343Z,101330.73
2022-10-12T16:41:16.576Z,101327.20
2022-10-12T16:43:44.450Z,101328.52
2022-10-12T16:46:12.150Z,101330.64
2022-10-12T16:48:39.803Z,101334.54
2022-10-12T16:51:12.177Z,101336.46
2022-10-12T16:53:42.309Z,101331.70
2022-10-12T16:56:10.286Z,101333.79
2022-10-12T16:58:37.960Z,101328.63
2022-10-12T17:01:11.511Z,101331.80
2022-10-12T17:03:40.338Z,101333.16
2022-10-12T17:06:08.904Z,101332.23
2022-10-12T17:08:39.129Z,101333.73
2022-10-12T17:11:13.595Z,101332.58
2022-10-12T17:13:45.241Z,101333.27
2022-10-12T17:16:36.141Z,101335.78
2022-10-12T17:19:04.542Z,101335.70
2022-10-12T17:21:32.194Z,101336.39
2022-10-12T17:24:01.017Z,101334.81
2022-10-12T17:26:28.901Z,101337.85
2022-10-12T17:28:56.623Z,101337.27
2022-10-12T17:31:24.799Z,101342.79
2022-10-12T17:33:53.123Z,101344.99
2022-10-12T17:36:24.431Z,101347.42
2022-10-12T17:38:56.809Z,101344.89
2022-10-12T17:41:25.492Z,101343.20
2022-10-12T17:43:53.172Z,101341.70
2022-10-12T17:46:22.699Z,101341.95
2022-10-12T17:48:51.017Z,101340.54
2022-10-12T17:51:18.926Z,101341.80
2022-10-12T17:53:46.837Z,101335.66
2022-10-12T17:56:15.297Z,101343.03
2022-10-12T17:58:43.097Z,101338.36
2022-10-12T18:01:14.125Z,101336.71
2022-10-12T18:03:45.373Z,101332.17
2022-10-12T18:06:16.107Z,101328.52
2022-10-12T18:08:44.414Z,101320.52
2022-10-12T18:11:12.467Z,101334.10
2022-10-12T18:13:40.280Z,101332.91
2022-10-12T18:16:11.074Z,101332.44
2022-10-12T18:18:39.697Z,101333.21
2022-10-12T18:21:10.646Z,101334.38
2022-10-12T18:23:38.413Z,101334.18
2022-10-12T18:26:11.719Z,101329.29
2022-10-12T18:28:40.837Z,101334.96
2022-10-12T18:31:08.669Z,101331.11
2022-10-12T18:33:36.372Z,101329.86
2022-10-12T18:36:05.839Z,101331.95
2022-10-12T18:38:34.439Z,101332.79
2022-10-12T18:41:07.394Z,101334.33
2022-10-12T18:43:36.265Z,101338.23
2022-10-12T18:46:12.799Z,101336.10
2022-10-12T18:48:41.026Z,101338.00
2022-10-12T18:51:25.180Z,101335.85
2022-10-12T18:53:53.181Z,101335.46
2022-10-12T18:56:21.248Z,101339.64
2022-10-12T18:58:49.537Z,101339.22
2022-10-12T19:01:20.247Z,101339.52
2022-10-12T19:03:48.808Z,101339.41
2022-10-12T19:06:20.514Z,101339.77
2022-10-12T19:08:49.083Z,101341.44
2022-10-12T19:11:19.099Z,101344.59
2022-10-12T19:13:55.528Z,101345.12
2022-10-12T19:16:23.801Z,101345.83
2022-10-12T19:18:59.838Z,101335.20
2022-10-12T19:21:28.218Z,101342.70
2022-10-12T19:23:56.133Z,101334.84
2022-10-12T19:26:26.966Z,101344.98
2022-10-12T19:28:56.418Z,101343.50
2022-10-12T19:31:26.854Z,101348.30
2022-10-12T19:33:59.666Z,101347.54
2022-10-12T19:36:28.630Z,101348.38
2022-10-12T19:38:58.960Z,101346.36
2022-10-12T19:41:28.814Z,101348.08
2022-10-12T19:43:57.541Z,101347.81
2022-10-12T19:46:25.432Z,101350.09
2022-10-12T19:48:55.078Z,101345.44
2022-10-12T19:51:24.626Z,101357.32
2022-10-12T19:53:57.521Z,101356.72
2022-10-12T19:56:26.063Z,101355.23
2022-10-12T19:58:56.251Z,101359.23
2022-10-12T20:01:27.408Z,101356.63
2022-10-12T20:03:55.918Z,101356.16
2022-10-12T20:06:26.346Z,101352.63
2022-10-12T20:08:56.192Z,101354.61
2022-10-12T20:11:25.176Z,101352.92
2022-10-12T20:13:53.416Z,101352.88
2022-10-12T20:16:22.033Z,101351.58
2022-10-12T20:18:50.478Z,101353.86
2022-10-12T20:21:24.484Z,101353.91
2022-10-12T20:23:52.276Z,101353.85
2022-10-12T20:26:25.702Z,101353.80
2022-10-12T20:28:54.475Z,101355.07
2022-10-12T20:31:27.514Z,101353.77
2022-10-12T20:33:57.793Z,101358.88
2022-10-12T20:36:30.221Z,101363.16
2022-10-12T20:38:59.340Z,101363.08
2022-10-12T20:41:28.088Z,101367.17
2022-10-12T20:43:57.236Z,101358.31
2022-10-12T20:46:25.988Z,101365.17
2022-10-12T20:48:58.817Z,101367.78
2022-10-12T20:51:32.885Z,101369.76
2022-10-12T20:54:03.076Z,101368.98
2022-10-12T20:56:33.018Z,101367.69
2022-10-12T20:59:01.437Z,101370.92
2022-10-12T21:01:29.509Z,101372.31
2022-10-12T21:03:57.422Z,101374.56
2022-10-12T21:06:25.185Z,101367.52
2022-10-12T21:08:55.273Z,101373.30
2022-10-12T21:11:23.435Z,101371.65
2022-10-12T21:13:51.155Z,101374.78
2022-10-12T21:16:19.265Z,101376.09
2022-10-12T21:18:47.158Z,101374.59
2022-10-12T21:21:18.529Z,101377.59
2022-10-12T21:23:57.713Z,101370.59
2022-10-12T21:26:29.162Z,101378.99
2022-10-12T21:28:58.267Z,101376.38
2022-10-12T21:31:31.777Z,101367.48
2022-10-12T21:34:05.111Z,101372.83
2022-10-12T21:36:36.378Z,101373.98
2022-10-12T21:39:09.868Z,101373.98
2022-10-12T21:41:37.603Z,101375.70
2022-10-12T21:44:05.684Z,101373.58
2022-10-12T21:46:35.192Z,101375.29
2022-10-12T21:49:04.656Z,101375.77
2022-10-12T21:51:32.901Z,101374.61
2022-10-12T21:54:00.633Z,101378.59
2022-10-12T21:56:33.194Z,101379.58
2022-10-12T21:59:02.185Z,101373.80
2022-10-12T22:01:39.007Z,101376.40
2022-10-12T22:04:11.836Z,101382.47
2022-10-12T22:06:39.821Z,101382.83
2022-10-12T22:09:11.903Z,101384.71
2022-10-12T22:11:39.693Z,101383.73
2022-10-12T22:14:11.274Z,101386.09
2022-10-12T22:16:39.506Z,101385.29
2022-10-12T22:19:08.428Z,101388.05
2022-10-12T22:21:36.540Z,101387.48
2022-10-12T22:24:05.936Z,101385.71
2022-10-12T22:26:35.172Z,101385.35
2022-10-12T22:29:05.126Z,101385.23
2022-10-12T22:31:33.582Z,101376.87
2022-10-12T22:34:01.297Z,101381.46
2022-10-12T22:36:31.112Z,101387.85
2022-10-12T22:38:59.616Z,101382.74
2022-10-12T22:41:27.470Z,101387.70
2022-10-12T22:43:56.847Z,101384.00
2022-10-12T22:46:25.907Z,101386.52
2022-10-12T22:48:54.612Z,101390.41
2022-10-12T22:51:31.244Z,101388.59
2022-10-12T22:54:00.386Z,101388.37
2022-10-12T22:56:28.774Z,101389.05
2022-10-12T22:58:59.099Z,101389.25
2022-10-12T23:01:27.244Z,101388.69
2022-10-12T23:03:55.385Z,101383.93
2022-10-12T23:06:23.749Z,101383.93
2022-10-12T23:08:51.759Z,101385.91
2022-10-12T23:11:25.124Z,101378.80
2022-10-12T23:13:54.372Z,101386.08
2022-10-12T23:16:24.514Z,101386.36
2022-10-12T23:18:59.933Z,101387.21
2022-10-12T23:21:29.484Z,101388.77
2022-10-12T23:40:08.686Z,101388.60
2022-10-12T23:42:34.919Z,101392.23
2022-10-12T23:45:03.361Z,101391.59
2022-10-12T23:47:29.991Z,101382.42
2022-10-12T23:49:56.224Z,101388.64
2022-10-12T23:52:22.437Z,101389.73
2022-10-12T23:54:50.266Z,101390.86
2022-10-12T23:57:41.395Z,101390.69
